Wetterdaten: aktuell Donnerstag, 18.01.2018 06:45
Datum Zeit Temp. A. Luft Gew. Boden Gew. Boden A. Feuchte A. Luftdruck Regen Wind Richtung Richtung Sonnenschein ET UV Solar Taupunkt Windchill Windben Empfang
18.01.2018 06:45 1.8 C 0.6 C 0.0 C 0.0 C 94 % 1010.5 hPa 0.2 l/m 15.8 km/h (3 Bft) SW 218 0 min 0.000 mm 0.0 UV-I 0 W/m 0.9 C -5.2 C 29.0 km/h (5 Bft) 98.29 %
18.01.2018 05:45 1.8 C 0.6 C 0.0 C 0.0 C 93 % 1012.6 hPa 0.0 l/m 18.8 km/h (3 Bft) SW 223 0 min 0.000 mm 0.0 UV-I 0 W/m 0.8 C -6.8 C 30.6 km/h (5 Bft) 97.46 %
18.01.2018 04:45 1.6 C 0.6 C 0.0 C 0.0 C 94 % 1013.3 hPa 0.0 l/m 16.6 km/h (3 Bft) W-SW 245 0 min 0.000 mm 0.0 UV-I 0 W/m 0.7 C -5.9 C 30.6 km/h (5 Bft) 100.00 %
18.01.2018 03:45 1.3 C 0.6 C 0.0 C 0.0 C 95 % 1014.3 hPa 0.0 l/m 15.4 km/h (3 Bft) SW 214 0 min 0.000 mm 0.0 UV-I 0 W/m 0.6 C -5.6 C 29.0 km/h (5 Bft) 99.15 %
18.01.2018 02:45 1.0 C 0.6 C 0.0 C 0.0 C 95 % 1014.7 hPa 0.0 l/m 15.7 km/h (3 Bft) W-SW 239 0 min 0.000 mm 0.0 UV-I 0 W/m 0.3 C -6.2 C 32.2 km/h (5 Bft) 99.15 %
18.01.2018 01:45 0.9 C 0.6 C 0.0 C 0.0 C 94 % 1015.4 hPa 0.0 l/m 8.5 km/h (2 Bft) S-SW 213 0 min 0.000 mm 0.0 UV-I 0 W/m 0.0 C -1.2 C 12.9 km/h (3 Bft) 100.00 %
18.01.2018 00:45 1.2 C 0.6 C 0.0 C 0.0 C 93 % 1015.6 hPa 0.0 l/m 10.0 km/h (2 Bft) SW 225 0 min 0.000 mm 0.0 UV-I 0 W/m 0.2 C -2.1 C 19.3 km/h (3 Bft) 96.58 %
17.01.2018 23:45 1.2 C 0.6 C 0.0 C 0.0 C 92 % 1015.2 hPa 0.0 l/m 8.4 km/h (2 Bft) SW 235 0 min 0.025 mm 0.0 UV-I 0 W/m 0.0 C -0.8 C 16.1 km/h (3 Bft) 95.73 %
17.01.2018 22:45 1.4 C 0.6 C 0.0 C 0.0 C 89 % 1014.9 hPa 0.0 l/m 13.3 km/h (3 Bft) SW 235 0 min 0.000 mm 0.0 UV-I 0 W/m -0.2 C -4.3 C 20.9 km/h (4 Bft) 94.02 %
17.01.2018 21:45 1.0 C 0.6 C 0.0 C 0.0 C 92 % 1014.4 hPa 0.0 l/m 17.1 km/h (3 Bft) W-SW 248 0 min 0.000 mm 0.0 UV-I 0 W/m -0.2 C -6.9 C 30.6 km/h (5 Bft) 97.46 %
17.01.2018 20:45 0.8 C 0.6 C 0.0 C 0.0 C 94 % 1013.7 hPa 0.0 l/m 12.4 km/h (3 Bft) W 260 0 min 0.000 mm 0.0 UV-I 0 W/m -0.1 C -4.4 C 22.5 km/h (4 Bft) 100.00 %
17.01.2018 19:45 0.8 C 0.6 C 0.0 C 0.0 C 94 % 1013.0 hPa 0.0 l/m 11.5 km/h (2 Bft) W 268 0 min 0.000 mm 0.0 UV-I 0 W/m -0.1 C -3.7 C 19.3 km/h (3 Bft) 99.15 %
17.01.2018 18:45 0.7 C 1.1 C 0.0 C 0.0 C 93 % 1012.2 hPa 0.0 l/m 12.6 km/h (3 Bft) W-SW 255 0 min 0.025 mm 0.0 UV-I 0 W/m -0.3 C -4.6 C 24.1 km/h (4 Bft) 99.15 %
17.01.2018 17:45 0.8 C 1.1 C 0.0 C 0.0 C 90 % 1011.3 hPa 0.0 l/m 16.3 km/h (3 Bft) SW 222 0 min 0.026 mm 0.0 UV-I 0 W/m -0.6 C -6.8 C 27.4 km/h (4 Bft) 99.15 %
17.01.2018 16:45 1.7 C 3.3 C 0.0 C 0.0 C 82 % 1010.3 hPa 0.0 l/m 19.2 km/h (3 Bft) W 263 0 min 0.051 mm 0.0 UV-I 6 W/m -1.0 C -7.1 C 37.0 km/h (5 Bft) 96.12 %
17.01.2018 15:45 1.9 C 3.9 C 0.0 C 0.0 C 81 % 1010.0 hPa 0.0 l/m 19.5 km/h (3 Bft) W-SW 256 0 min 0.076 mm 0.0 UV-I 60 W/m -1.0 C -7.0 C 30.6 km/h (5 Bft) 96.75 %
17.01.2018 14:45 2.3 C 4.4 C 0.0 C 0.0 C 78 % 1009.0 hPa 0.0 l/m 21.3 km/h (4 Bft) W-SW 244 25 min 0.101 mm 0.0 UV-I 94 W/m -1.1 C -7.2 C 48.3 km/h (6 Bft) 98.33 %
17.01.2018 13:45 2.3 C 5.0 C 0.0 C 0.0 C 82 % 1008.0 hPa 0.2 l/m 19.9 km/h (4 Bft) W 273 55 min 0.001 mm 0.5 UV-I 122 W/m -0.4 C -6.6 C 41.8 km/h (6 Bft) 98.15 %
17.01.2018 12:45 1.5 C 5.0 C 0.0 C 0.0 C 89 % 1007.2 hPa 0.2 l/m 21.4 km/h (4 Bft) W-SW 254 20 min 0.050 mm 0.8 UV-I 321 W/m -0.1 C -8.3 C 38.6 km/h (5 Bft) 99.15 %
17.01.2018 11:45 2.1 C 7.8 C 0.0 C 0.0 C 81 % 1006.5 hPa 0.0 l/m 22.6 km/h (4 Bft) W-SW 239 5 min 0.051 mm 0.0 UV-I 36 W/m -0.8 C -8.0 C 43.5 km/h (6 Bft) 97.50 %
17.01.2018 10:45 2.4 C 7.2 C 0.0 C 0.0 C 81 % 1005.1 hPa 0.0 l/m 22.3 km/h (4 Bft) NW 324 0 min 0.026 mm 0.0 UV-I 41 W/m -0.5 C -7.5 C 38.6 km/h (5 Bft) 97.44 %
17.01.2018 09:45 1.7 C 1.7 C 0.0 C 0.0 C 88 % 1003.6 hPa 0.2 l/m 24.2 km/h (4 Bft) W-NW 288 0 min 0.025 mm 0.0 UV-I 71 W/m -0.1 C -9.1 C 40.2 km/h (6 Bft) 100.00 %
17.01.2018 08:45 1.7 C 1.1 C 0.0 C 0.0 C 91 % 1002.3 hPa 0.0 l/m 18.3 km/h (3 Bft) W-SW 240 0 min 0.000 mm 0.0 UV-I 15 W/m 0.4 C -6.7 C 30.6 km/h (5 Bft) 100.00 %
17.01.2018 07:25 1.9 C 1.1 C 0.0 C 0.0 C 94 % 1000.8 hPa 0.0 l/m 17.5 km/h (3 Bft) W-SW 246 0 min 0.000 mm 0.0 UV-I 0 W/m 1.0 C -6.0 C 30.6 km/h (5 Bft) 100.00 %
17.01.2018 07:00 2.2 C 1.7 C 0.0 C 0.0 C 94 % 1000.2 hPa 0.0 l/m 29.0 km/h (5 Bft) W 271 0 min 0.000 mm 0.0 UV-I 0 W/m 1.3 C -10.0 C 51.5 km/h (7 Bft) 100.00 %
_ Min-Zeit 19:00 18:55 07:00 07:00 14:35 07:00 - 02:15 - - - - - - 15:15 12:35 02:15 15:30
Minimum _ 0.5 C 0.6 C 0.0 C 0.0 C 77 % 1000.2 hPa - 4.8 km/h (1 Bft) - - - - - - -1.4 C -10.3 C 8.0 km/h (2 Bft) 93.16 %
_ Max-Zeit 11:15 11:15 07:00 07:00 12:35 00:30 07:00 07:00 - - 11:30 14:00 12:35 12:30 07:00 02:15 13:25 07:00
Maximum _ 2.8 C 9.4 C 0.0 C 0.0 C 96 % 1015.6 hPa 0.2 l/m 29.0 km/h
W (5 Bft)
- - 5 min 0.101 mm 0.8 UV-I 359 W/m 1.3 C 0.9 C 56.3 km/h
W-SW (7 Bft)
100.00 %
Durchschnitt _ 1.5 C 2.1 C 0.0 C 0.0 C 90 % 1009.7 hPa #1.0 l/m 17.8 km/h (3 Bft) W-SW - #0 min. #0.000 mm 0.0 UV-I 0 W/m 0.0 C -6.2 C 32.2 km/h (5 Bft) 98.37 %